createdAt,value
2022-08-17T00:01:08.168Z,85.00
2022-08-17T00:04:53.128Z,85.80
2022-08-17T00:08:36.927Z,83.70
2022-08-17T00:12:43.053Z,84.50
2022-08-17T00:16:57.093Z,84.70
2022-08-17T00:20:36.618Z,84.90
2022-08-17T00:24:18.742Z,84.70
2022-08-17T00:28:00.665Z,84.40
2022-08-17T00:33:13.761Z,84.50
2022-08-17T00:36:06.249Z,84.90
2022-08-17T00:39:50.186Z,84.60
2022-08-17T00:43:52.498Z,85.30
2022-08-17T00:47:34.295Z,85.10
2022-08-17T00:51:30.117Z,84.90
2022-08-17T00:55:11.943Z,85.50
2022-08-17T00:59:14.759Z,84.60
2022-08-17T01:02:59.523Z,85.10
2022-08-17T01:06:42.026Z,85.00
2022-08-17T01:10:58.443Z,84.90
2022-08-17T01:14:43.218Z,85.20
2022-08-17T01:18:26.422Z,84.90
2022-08-17T01:22:11.191Z,85.20
2022-08-17T01:25:54.893Z,85.50
2022-08-17T01:30:00.925Z,85.70
2022-08-17T01:33:42.741Z,85.30
2022-08-17T01:37:35.547Z,85.30
2022-08-17T01:41:38.318Z,85.60
2022-08-17T01:45:33.088Z,85.50
2022-08-17T01:49:17.920Z,85.30
2022-08-17T01:53:19.860Z,85.40
2022-08-17T01:57:02.176Z,85.10
2022-08-17T02:00:46.600Z,85.30
2022-08-17T02:04:41.596Z,85.30
2022-08-17T02:08:37.281Z,85.20
2022-08-17T02:12:38.187Z,85.40
2022-08-17T02:16:21.363Z,85.40
2022-08-17T02:20:04.723Z,85.40
2022-08-17T02:23:47.513Z,85.60
2022-08-17T02:27:29.513Z,85.50
2022-08-17T02:31:12.542Z,85.80
2022-08-17T02:34:54.320Z,85.60
2022-08-17T02:38:56.754Z,85.80
2022-08-17T02:42:40.870Z,86.10
2022-08-17T02:46:22.690Z,85.90
2022-08-17T02:50:26.610Z,85.50
2022-08-17T02:54:41.817Z,86.10
2022-08-17T02:58:10.680Z,84.80
2022-08-17T03:01:54.749Z,85.10
2022-08-17T03:05:37.255Z,85.50
2022-08-17T03:09:37.891Z,85.10
2022-08-17T03:13:20.117Z,85.60
2022-08-17T03:17:01.915Z,85.70
2022-08-17T03:21:41.510Z,85.50
2022-08-17T03:25:25.687Z,85.50
2022-08-17T03:29:08.740Z,85.50
2022-08-17T03:32:51.735Z,85.60
2022-08-17T03:36:36.133Z,85.20
2022-08-17T03:40:18.447Z,85.20
2022-08-17T03:44:20.183Z,85.20
2022-08-17T03:48:20.781Z,85.50
2022-08-17T03:52:20.970Z,85.50
2022-08-17T03:56:22.006Z,85.40
2022-08-17T04:00:22.910Z,85.50
2022-08-17T04:04:05.095Z,86.10
2022-08-17T04:07:46.917Z,85.70
2022-08-17T04:11:30.002Z,85.60
2022-08-17T04:15:12.693Z,86.00
2022-08-17T04:18:54.712Z,85.90
2022-08-17T04:22:36.623Z,85.90
2022-08-17T04:26:52.957Z,86.40
2022-08-17T04:30:43.209Z,86.20
2022-08-17T04:34:25.132Z,86.80
2022-08-17T04:38:07.771Z,86.40
2022-08-17T04:42:06.845Z,86.60
2022-08-17T04:45:55.067Z,86.60
2022-08-17T04:50:01.670Z,86.70
2022-08-17T04:53:45.223Z,86.60
2022-08-17T04:57:26.953Z,86.10
2022-08-17T05:01:13.003Z,85.30
2022-08-17T05:04:54.856Z,86.60
2022-08-17T05:09:17.510Z,86.00
2022-08-17T05:13:00.367Z,86.60
2022-08-17T05:16:42.158Z,86.40
2022-08-17T05:20:42.852Z,86.20
2022-08-17T05:24:38.609Z,86.80
2022-08-17T05:28:27.610Z,86.60
2022-08-17T05:32:47.896Z,85.90
2022-08-17T05:36:37.456Z,85.90
2022-08-17T05:40:16.983Z,85.80
2022-08-17T05:43:58.863Z,86.00
2022-08-17T05:47:40.811Z,86.10
2022-08-17T05:56:43.378Z,87.20
2022-08-17T06:01:09.429Z,87.30
2022-08-17T06:04:59.633Z,86.80
2022-08-17T06:08:44.445Z,86.30
2022-08-17T06:12:34.485Z,86.50
2022-08-17T06:16:32.842Z,86.30
2022-08-17T06:20:16.561Z,86.50
2022-08-17T06:24:03.199Z,86.00
2022-08-17T06:27:53.554Z,86.40
2022-08-17T06:32:15.026Z,86.10
2022-08-17T06:36:18.035Z,86.20
2022-08-17T06:40:37.463Z,86.10
2022-08-17T06:45:03.629Z,86.20
2022-08-17T06:49:26.232Z,85.90
2022-08-17T06:53:34.347Z,85.40
2022-08-17T06:57:20.082Z,85.60
2022-08-17T07:01:18.251Z,85.30
2022-08-17T07:05:01.686Z,85.50
2022-08-17T07:09:02.433Z,85.30
2022-08-17T07:12:44.327Z,85.60
2022-08-17T07:16:27.452Z,85.40
2022-08-17T07:20:31.253Z,85.00
2022-08-17T07:24:28.099Z,85.30
2022-08-17T07:28:12.300Z,84.90
2022-08-17T07:31:56.362Z,85.30
2022-08-17T07:35:41.429Z,85.20
2022-08-17T07:40:16.347Z,85.00
2022-08-17T07:43:58.763Z,85.20
2022-08-17T07:47:58.945Z,84.70
2022-08-17T07:51:45.811Z,84.60
2022-08-17T07:55:33.002Z,84.60
2022-08-17T07:59:33.364Z,83.90
2022-08-17T08:03:28.497Z,84.20
2022-08-17T08:07:25.290Z,83.60
2022-08-17T08:11:17.287Z,83.80
2022-08-17T08:15:10.180Z,83.50
2022-08-17T08:18:58.474Z,83.20
2022-08-17T08:22:52.586Z,82.10
2022-08-17T08:27:08.025Z,81.40
2022-08-17T08:30:52.793Z,81.40
2022-08-17T08:35:01.658Z,81.00
2022-08-17T08:38:54.921Z,80.70
2022-08-17T08:42:56.711Z,81.10
2022-08-17T08:46:53.710Z,80.50
2022-08-17T08:50:43.072Z,81.00
2022-08-17T08:54:58.148Z,79.60
2022-08-17T08:59:14.020Z,80.10
2022-08-17T09:03:19.156Z,79.40
2022-08-17T09:07:38.559Z,78.60
2022-08-17T09:12:01.885Z,78.70
2022-08-17T09:15:50.234Z,79.50
2022-08-17T09:19:44.533Z,78.80
2022-08-17T09:23:33.178Z,77.90
2022-08-17T09:27:18.552Z,78.10
2022-08-17T09:31:21.731Z,78.20
2022-08-17T09:35:33.798Z,77.80
2022-08-17T09:39:42.324Z,77.80
2022-08-17T09:43:39.832Z,78.30
2022-08-17T09:47:56.287Z,77.50
2022-08-17T09:51:45.751Z,75.70
2022-08-17T09:55:52.985Z,75.80
2022-08-17T09:59:44.836Z,74.70
2022-08-17T10:03:49.147Z,74.80
2022-08-17T10:07:41.752Z,75.00
2022-08-17T10:11:50.749Z,75.30
2022-08-17T10:16:38.343Z,75.20
2022-08-17T10:21:16.885Z,74.60
2022-08-17T10:25:22.846Z,74.20
2022-08-17T10:29:17.078Z,73.60
2022-08-17T10:33:01.312Z,73.20
2022-08-17T10:36:46.278Z,73.10
2022-08-17T10:41:06.427Z,71.70
2022-08-17T10:44:56.282Z,72.10
2022-08-17T10:48:40.415Z,72.00
2022-08-17T10:52:29.883Z,72.00
2022-08-17T10:56:15.481Z,70.80
2022-08-17T11:00:00.486Z,71.50
2022-08-17T11:03:55.058Z,71.40
2022-08-17T11:07:48.899Z,71.80
2022-08-17T11:11:53.118Z,70.70
2022-08-17T11:15:54.978Z,71.20
2022-08-17T11:20:06.476Z,70.90
2022-08-17T11:24:03.340Z,70.90
2022-08-17T11:27:47.126Z,70.60
2022-08-17T11:31:41.141Z,70.50
2022-08-17T11:35:23.117Z,70.20
2022-08-17T11:39:17.131Z,70.60
2022-08-17T11:43:13.338Z,70.00
2022-08-17T11:47:38.778Z,70.20
2022-08-17T11:52:02.347Z,69.70
2022-08-17T11:55:53.210Z,70.20
2022-08-17T12:00:14.242Z,70.40
2022-08-17T12:04:25.440Z,70.40
2022-08-17T12:08:17.759Z,70.30
2022-08-17T12:12:12.339Z,69.40
2022-08-17T12:15:56.427Z,69.10
2022-08-17T12:20:15.550Z,69.00
2022-08-17T12:24:31.231Z,68.00
2022-08-17T12:28:27.073Z,68.20
2022-08-17T12:32:14.424Z,66.60
2022-08-17T12:36:03.175Z,66.40
2022-08-17T12:40:00.023Z,66.10
2022-08-17T12:43:41.863Z,65.50
2022-08-17T12:47:23.767Z,65.20
2022-08-17T12:51:07.842Z,66.00
2022-08-17T12:54:52.622Z,65.80
2022-08-17T12:58:38.110Z,65.10
2022-08-17T13:02:53.438Z,65.00
2022-08-17T13:06:35.793Z,64.80
2022-08-17T13:10:56.535Z,65.50
2022-08-17T13:14:38.327Z,65.20
2022-08-17T13:18:39.057Z,65.00
2022-08-17T13:22:23.448Z,63.90
2022-08-17T13:26:14.614Z,64.10
2022-08-17T13:30:05.678Z,63.20
2022-08-17T13:33:47.527Z,62.90
2022-08-17T13:37:34.240Z,63.10
2022-08-17T13:41:35.163Z,62.40
2022-08-17T13:45:36.280Z,62.40
2022-08-17T13:49:50.337Z,62.40
2022-08-17T13:58:06.591Z,63.20
2022-08-17T14:01:57.727Z,63.50
2022-08-17T14:05:45.054Z,62.10
2022-08-17T14:09:37.569Z,62.30
2022-08-17T14:13:19.554Z,61.70
2022-08-17T14:17:01.509Z,62.10
2022-08-17T14:20:46.729Z,62.40
2022-08-17T14:24:32.874Z,62.20
2022-08-17T14:28:20.744Z,61.80
2022-08-17T14:32:09.479Z,62.40
2022-08-17T14:35:53.533Z,61.00
2022-08-17T14:39:49.022Z,62.10
2022-08-17T14:43:55.192Z,60.00
2022-08-17T14:48:12.662Z,59.10
2022-08-17T14:51:54.554Z,59.30
2022-08-17T14:55:39.862Z,57.70
2022-08-17T14:59:23.936Z,57.20
2022-08-17T15:03:05.810Z,55.50
2022-08-17T15:06:48.490Z,54.80
2022-08-17T15:10:30.322Z,54.20
2022-08-17T15:14:12.140Z,58.40
2022-08-17T15:17:53.927Z,53.80
2022-08-17T15:21:38.860Z,52.30
2022-08-17T15:25:22.175Z,51.20
2022-08-17T15:29:05.383Z,50.00
2022-08-17T15:32:54.512Z,49.00
2022-08-17T15:36:37.521Z,49.00
2022-08-17T15:40:22.640Z,48.30
2022-08-17T15:44:04.891Z,47.20
2022-08-17T15:47:49.766Z,46.70
2022-08-17T15:52:27.755Z,46.30
2022-08-17T15:56:09.731Z,48.20
2022-08-17T16:00:12.556Z,49.00
2022-08-17T16:04:04.612Z,49.80
2022-08-17T16:07:49.416Z,50.30
2022-08-17T16:11:52.174Z,50.80
2022-08-17T16:15:38.101Z,51.70
2022-08-17T16:19:39.066Z,52.50
2022-08-17T16:23:20.839Z,53.10
2022-08-17T16:27:02.857Z,54.10
2022-08-17T16:30:55.739Z,54.40
2022-08-17T16:34:37.603Z,54.90
2022-08-17T16:38:19.366Z,55.40
2022-08-17T16:42:02.772Z,55.70
2022-08-17T16:45:48.655Z,56.20
2022-08-17T16:49:37.009Z,56.40
2022-08-17T16:53:21.966Z,56.70
2022-08-17T16:57:05.322Z,57.20
2022-08-17T17:00:48.816Z,57.50
2022-08-17T17:04:30.779Z,58.00
2022-08-17T17:08:25.624Z,58.40
2022-08-17T17:12:12.232Z,58.70
2022-08-17T17:16:26.445Z,58.90
2022-08-17T17:20:17.694Z,59.40
2022-08-17T17:24:01.686Z,59.60
2022-08-17T17:28:02.603Z,60.20
2022-08-17T17:31:57.856Z,60.10
2022-08-17T17:35:57.561Z,60.80
2022-08-17T17:40:05.781Z,60.70
2022-08-17T17:43:50.046Z,60.90
2022-08-17T17:47:31.953Z,61.20
2022-08-17T17:52:06.700Z,61.40
2022-08-17T17:56:39.196Z,61.80
2022-08-17T18:00:21.872Z,61.60
2022-08-17T18:04:21.494Z,62.20
2022-08-17T18:08:36.678Z,62.20
2022-08-17T18:12:28.116Z,62.10
2022-08-17T18:16:12.431Z,62.20
2022-08-17T18:19:56.765Z,62.50
2022-08-17T18:23:43.153Z,62.90
2022-08-17T18:27:24.903Z,63.20
2022-08-17T18:31:13.283Z,63.30
2022-08-17T18:34:57.550Z,63.90
2022-08-17T18:39:36.009Z,64.00
2022-08-17T18:43:53.676Z,64.30
2022-08-17T18:47:35.791Z,64.50
2022-08-17T18:51:40.307Z,64.90
2022-08-17T18:55:28.431Z,65.20
2022-08-17T18:59:39.765Z,65.80
2022-08-17T19:03:25.755Z,66.00
2022-08-17T19:07:11.817Z,66.40
2022-08-17T19:10:58.827Z,66.60
2022-08-17T19:14:40.606Z,67.20
2022-08-17T19:19:18.789Z,67.20
2022-08-17T19:23:22.984Z,67.70
2022-08-17T19:27:15.756Z,68.10
2022-08-17T19:31:04.143Z,68.20
2022-08-17T19:34:45.907Z,68.60
2022-08-17T19:38:51.366Z,68.60
2022-08-17T19:42:47.553Z,68.80
2022-08-17T19:46:50.575Z,68.80
2022-08-17T19:51:15.832Z,68.80
2022-08-17T19:55:05.632Z,68.70
2022-08-17T19:58:58.376Z,68.70
2022-08-17T20:02:45.954Z,69.30
2022-08-17T20:06:27.919Z,68.50
2022-08-17T20:10:26.896Z,68.80
2022-08-17T20:14:14.980Z,69.20
2022-08-17T20:18:01.382Z,69.40
2022-08-17T20:22:51.758Z,69.50
2022-08-17T20:26:58.114Z,69.60
2022-08-17T20:31:30.957Z,69.80
2022-08-17T20:35:31.799Z,69.80
2022-08-17T20:39:57.274Z,69.90
2022-08-17T20:43:39.158Z,70.20
2022-08-17T20:47:27.131Z,70.00
2022-08-17T20:51:32.460Z,70.30
2022-08-17T20:55:36.450Z,70.40
2022-08-17T20:59:42.640Z,70.70
2022-08-17T21:03:47.599Z,71.20
2022-08-17T21:07:43.188Z,71.50
2022-08-17T21:11:58.263Z,71.50
2022-08-17T21:15:55.343Z,71.30
2022-08-17T21:20:13.815Z,71.70
2022-08-17T21:24:18.184Z,72.30
2022-08-17T21:28:21.816Z,72.00
2022-08-17T21:32:17.141Z,72.10
2022-08-17T21:36:10.101Z,71.80
2022-08-17T21:40:13.009Z,71.80
2022-08-17T21:44:05.352Z,72.00
2022-08-17T21:47:52.104Z,72.10
2022-08-17T21:51:55.169Z,72.40
2022-08-17T21:55:37.016Z,72.40
2022-08-17T21:59:26.089Z,72.50
2022-08-17T22:03:08.310Z,72.60
2022-08-17T22:06:56.458Z,72.60
2022-08-17T22:10:43.669Z,72.60
2022-08-17T22:14:53.190Z,72.90
2022-08-17T22:18:36.098Z,73.00
2022-08-17T22:22:26.420Z,72.60
2022-08-17T22:26:12.528Z,73.10
2022-08-17T22:29:58.791Z,72.90
2022-08-17T22:33:43.484Z,73.40
2022-08-17T22:37:28.453Z,73.20
2022-08-17T22:41:50.476Z,73.70
2022-08-17T22:45:33.775Z,73.50
2022-08-17T22:50:05.127Z,73.30
2022-08-17T22:54:21.610Z,73.60
2022-08-17T22:58:31.220Z,74.00
2022-08-17T23:02:23.734Z,74.00
2022-08-17T23:06:10.488Z,74.20
2022-08-17T23:09:52.958Z,74.20
2022-08-17T23:13:36.457Z,74.00
2022-08-17T23:17:18.171Z,74.10
2022-08-17T23:21:01.233Z,72.80
2022-08-17T23:24:50.532Z,74.20
2022-08-17T23:28:37.457Z,74.60
2022-08-17T23:32:19.266Z,74.40
2022-08-17T23:36:01.228Z,74.60
2022-08-17T23:40:03.543Z,74.60
2022-08-17T23:43:46.582Z,75.00
2022-08-17T23:47:28.629Z,74.90
2022-08-17T23:51:50.485Z,74.90
2022-08-17T23:55:34.649Z,75.30
